createdAt,value
2022-11-04T00:01:34.677Z,36.40
2022-11-04T00:04:42.435Z,37.03
2022-11-04T00:08:05.066Z,39.92
2022-11-04T00:11:30.055Z,40.88
2022-11-04T00:14:36.856Z,33.20
2022-11-04T00:17:43.625Z,47.27
2022-11-04T00:21:07.005Z,53.08
2022-11-04T00:24:30.388Z,47.38
2022-11-04T00:27:54.119Z,42.48
2022-11-04T00:30:59.645Z,40.83
2022-11-04T00:34:06.261Z,36.55
2022-11-04T00:37:13.743Z,35.95
2022-11-04T00:40:20.314Z,44.23
2022-11-04T00:43:25.512Z,43.65
2022-11-04T00:46:31.453Z,43.08
2022-11-04T00:49:38.254Z,42.10
2022-11-04T00:52:45.510Z,39.33
2022-11-04T00:55:51.192Z,43.45
2022-11-04T00:58:58.082Z,41.18
2022-11-04T01:02:04.823Z,34.83
2022-11-04T01:05:11.742Z,30.40
2022-11-04T01:08:17.657Z,35.50
2022-11-04T01:11:23.474Z,34.50
2022-11-04T01:14:29.617Z,35.83
2022-11-04T01:17:37.197Z,41.08
2022-11-04T01:20:43.243Z,38.10
2022-11-04T01:23:51.842Z,39.40
2022-11-04T01:26:58.702Z,32.83
2022-11-04T01:30:05.714Z,41.13
2022-11-04T01:33:13.599Z,43.73
2022-11-04T01:36:20.297Z,41.98
2022-11-04T01:39:27.229Z,38.98
2022-11-04T01:42:39.294Z,50.38
2022-11-04T01:45:46.118Z,34.67
2022-11-04T01:48:52.839Z,34.88
2022-11-04T01:51:59.571Z,28.45
2022-11-04T01:55:05.199Z,35.43
2022-11-04T01:58:13.985Z,39.70
2022-11-04T02:01:20.185Z,35.83
2022-11-04T02:04:32.583Z,41.37
2022-11-04T02:07:38.809Z,39.15
2022-11-04T02:10:46.872Z,33.88
2022-11-04T02:13:53.127Z,37.85
2022-11-04T02:17:01.338Z,52.00
2022-11-04T02:20:18.377Z,58.13
2022-11-04T02:24:07.199Z,62.53
2022-11-04T02:27:34.286Z,61.55
2022-11-04T02:30:39.741Z,56.98
2022-11-04T02:33:58.658Z,55.67
2022-11-04T02:37:40.329Z,49.67
2022-11-04T02:41:24.327Z,54.53
2022-11-04T02:44:35.140Z,55.03
2022-11-04T02:47:43.668Z,49.73
2022-11-04T02:51:08.228Z,48.58
2022-11-04T02:54:38.125Z,52.88
2022-11-04T02:57:45.937Z,56.95
2022-11-04T03:00:53.230Z,49.00
2022-11-04T03:04:03.912Z,63.13
2022-11-04T03:07:09.527Z,53.95
2022-11-04T03:10:21.576Z,52.17
2022-11-04T03:13:33.838Z,60.60
2022-11-04T03:16:48.213Z,52.45
2022-11-04T03:20:14.470Z,43.35
2022-11-04T03:23:20.779Z,41.10
2022-11-04T03:26:45.010Z,38.00
2022-11-04T03:29:55.007Z,34.53
2022-11-04T03:33:24.850Z,29.92
2022-11-04T03:36:30.996Z,27.73
2022-11-04T03:39:37.564Z,24.67
2022-11-04T03:42:44.094Z,24.05
2022-11-04T03:45:49.960Z,22.42
2022-11-04T03:48:55.364Z,20.90
2022-11-04T03:52:00.050Z,21.25
2022-11-04T03:55:06.627Z,21.97
2022-11-04T03:58:10.308Z,21.50
2022-11-04T04:01:24.477Z,20.68
2022-11-04T04:04:45.876Z,15.58
2022-11-04T04:07:57.507Z,15.98
2022-11-04T04:11:43.752Z,13.62
2022-11-04T04:14:56.535Z,14.03
2022-11-04T04:18:15.582Z,16.35
2022-11-04T04:24:45.007Z,25.82
2022-11-04T04:27:51.618Z,34.43
2022-11-04T04:31:00.244Z,32.33
2022-11-04T04:34:05.094Z,31.73
2022-11-04T04:37:24.126Z,27.93
2022-11-04T04:40:49.267Z,25.80
2022-11-04T04:44:07.814Z,23.47
2022-11-04T04:47:14.472Z,30.40
2022-11-04T04:50:21.611Z,24.18
2022-11-04T04:53:28.068Z,32.45
2022-11-04T04:56:33.239Z,31.20
2022-11-04T04:59:38.665Z,31.55
2022-11-04T05:02:44.627Z,31.77
2022-11-04T05:05:50.265Z,37.67
2022-11-04T05:08:56.680Z,31.27
2022-11-04T05:12:02.138Z,34.35
2022-11-04T05:15:08.175Z,34.30
2022-11-04T05:18:15.365Z,28.85
2022-11-04T05:21:23.868Z,30.97
2022-11-04T05:24:31.779Z,31.27
2022-11-04T05:27:37.126Z,33.13
2022-11-04T05:30:42.717Z,29.82
2022-11-04T05:33:48.644Z,32.80
2022-11-04T05:36:56.335Z,26.85
2022-11-04T05:40:02.527Z,31.45
2022-11-04T05:43:08.722Z,20.30
2022-11-04T05:46:15.540Z,28.62
2022-11-04T05:49:24.578Z,26.07
2022-11-04T05:52:30.559Z,26.52
2022-11-04T05:55:46.437Z,25.10
2022-11-04T05:58:55.407Z,23.10
2022-11-04T06:02:05.084Z,23.80
2022-11-04T06:05:12.056Z,20.32
2022-11-04T06:08:18.948Z,21.27
2022-11-04T06:11:25.617Z,27.17
2022-11-04T06:14:32.170Z,22.95
2022-11-04T06:17:38.990Z,26.73
2022-11-04T06:20:44.520Z,28.35
2022-11-04T06:23:49.383Z,21.55
2022-11-04T06:26:55.974Z,22.02
2022-11-04T06:30:02.029Z,20.52
2022-11-04T06:33:09.159Z,26.85
2022-11-04T06:36:16.847Z,27.82
2022-11-04T06:39:24.900Z,24.23
2022-11-04T06:42:32.869Z,19.27
2022-11-04T06:45:39.287Z,21.55
2022-11-04T06:48:46.436Z,19.67
2022-11-04T06:51:57.460Z,18.80
2022-11-04T06:55:08.599Z,18.90
2022-11-04T06:58:14.293Z,14.58
2022-11-04T07:01:24.641Z,15.38
2022-11-04T07:07:34.414Z,12.63
2022-11-04T07:10:39.517Z,14.18
2022-11-04T07:13:44.975Z,18.85
2022-11-04T07:16:51.126Z,15.32
2022-11-04T07:19:58.098Z,13.95
2022-11-04T07:23:05.305Z,19.25
2022-11-04T07:26:16.084Z,15.05
2022-11-04T07:29:25.271Z,13.58
2022-11-04T07:32:30.924Z,15.55
2022-11-04T07:35:36.552Z,14.80
2022-11-04T07:38:42.139Z,17.62
2022-11-04T07:41:48.410Z,20.72
2022-11-04T07:44:54.093Z,16.15
2022-11-04T07:47:58.781Z,20.97
2022-11-04T07:51:07.615Z,21.23
2022-11-04T07:54:16.700Z,29.10
2022-11-04T07:57:16.973Z,23.35
2022-11-04T08:00:10.124Z,27.70
2022-11-04T08:03:16.723Z,30.37
2022-11-04T08:06:23.694Z,34.35
2022-11-04T08:09:29.921Z,26.68
2022-11-04T08:12:36.043Z,45.40
2022-11-04T08:15:42.848Z,38.05
2022-11-04T08:18:49.110Z,27.05
2022-11-04T08:21:54.974Z,62.33
2022-11-04T08:25:02.128Z,61.98
2022-11-04T08:28:08.233Z,64.92
2022-11-04T08:31:23.390Z,46.10
2022-11-04T08:34:29.424Z,41.80
2022-11-04T08:37:35.488Z,52.70
2022-11-04T08:40:41.610Z,39.63
2022-11-04T12:34:58.229Z,10.50
2022-11-04T12:38:33.184Z,12.55
2022-11-04T12:42:19.676Z,13.03
2022-11-04T12:44:59.027Z,11.75
2022-11-04T12:48:05.021Z,8.25
2022-11-04T12:51:25.782Z,7.08
2022-11-04T12:55:08.911Z,10.70
2022-11-04T12:58:36.596Z,9.33
2022-11-04T13:01:48.947Z,7.97
2022-11-04T13:05:05.583Z,10.15
2022-11-04T13:08:25.017Z,12.45
2022-11-04T13:11:37.052Z,10.93
2022-11-04T13:14:45.076Z,11.08
2022-11-04T13:17:53.561Z,9.03
2022-11-04T13:21:16.230Z,7.37
2022-11-04T13:24:43.118Z,10.68
2022-11-04T13:27:58.321Z,7.97
2022-11-04T13:31:26.020Z,10.98
2022-11-04T13:35:02.086Z,9.80
2022-11-04T13:38:20.132Z,8.93
2022-11-04T13:42:03.672Z,9.20
2022-11-04T13:45:10.963Z,9.55
2022-11-04T13:48:31.309Z,10.13
2022-11-04T13:51:38.144Z,9.67
2022-11-04T13:54:57.383Z,9.93
2022-11-04T13:58:10.852Z,8.05
2022-11-04T14:01:28.134Z,6.58
2022-11-04T14:04:45.686Z,6.80
2022-11-04T14:08:19.467Z,14.98
2022-11-04T14:11:25.986Z,9.43
2022-11-04T14:14:26.865Z,6.53
2022-11-04T14:17:55.497Z,7.58
2022-11-04T14:21:28.926Z,9.45
2022-11-04T14:24:34.777Z,7.22
2022-11-04T14:27:47.605Z,8.05
2022-11-04T14:31:05.572Z,8.83
2022-11-04T14:34:12.154Z,6.12
2022-11-04T14:37:36.489Z,5.53
2022-11-04T14:40:48.019Z,7.40
2022-11-04T14:43:58.127Z,6.53
2022-11-04T14:47:07.244Z,5.53
2022-11-04T14:50:17.923Z,5.40
2022-11-04T14:53:27.934Z,7.22
2022-11-04T14:56:36.647Z,8.10
2022-11-04T14:59:42.870Z,6.37
2022-11-04T15:02:42.348Z,11.35
2022-11-04T15:05:50.733Z,12.00
2022-11-04T15:08:59.656Z,9.65
2022-11-04T15:12:25.760Z,22.30
2022-11-04T15:15:52.743Z,19.15
2022-11-04T15:18:58.811Z,11.12
2022-11-04T15:22:04.933Z,11.80
2022-11-04T15:25:10.012Z,12.95
2022-11-04T15:28:16.156Z,26.02
2022-11-04T15:31:33.328Z,33.70
2022-11-04T15:34:43.271Z,57.10
2022-11-04T15:37:49.181Z,44.13
2022-11-04T15:40:55.870Z,32.17
2022-11-04T15:44:02.247Z,29.15
2022-11-04T15:47:13.994Z,28.12
2022-11-04T15:50:20.504Z,38.58
2022-11-04T15:53:29.030Z,43.55
2022-11-04T15:56:38.505Z,67.42
2022-11-04T15:59:49.566Z,53.60
2022-11-04T16:03:02.968Z,43.85
2022-11-04T16:06:20.444Z,35.90
2022-11-04T16:09:41.620Z,31.07
2022-11-04T16:12:51.795Z,29.40
2022-11-04T16:16:16.238Z,29.75
2022-11-04T16:19:27.692Z,22.25
2022-11-04T16:22:51.027Z,19.90
2022-11-04T16:25:57.686Z,19.92
2022-11-04T16:29:04.009Z,22.40
2022-11-04T16:32:31.882Z,23.60
2022-11-04T16:35:40.662Z,23.00
2022-11-04T16:38:46.748Z,20.95
2022-11-04T16:41:55.326Z,18.70
2022-11-04T16:45:06.627Z,26.50
2022-11-04T16:48:13.647Z,25.08
2022-11-04T16:51:20.097Z,26.00
2022-11-04T16:54:27.163Z,25.32
2022-11-04T16:57:33.324Z,34.83
2022-11-04T17:00:43.639Z,25.08
2022-11-04T17:03:49.816Z,30.10
2022-11-04T17:06:56.741Z,28.75
2022-11-04T17:10:02.950Z,27.82
2022-11-04T17:13:08.696Z,25.57
2022-11-04T17:16:15.982Z,26.27
2022-11-04T17:19:21.043Z,30.00
2022-11-04T17:22:27.685Z,26.90
2022-11-04T17:25:39.908Z,32.05
2022-11-04T17:28:46.273Z,25.85
2022-11-04T17:31:54.142Z,28.83
2022-11-04T17:35:00.887Z,22.22
2022-11-04T17:38:07.620Z,32.20
2022-11-04T17:41:32.046Z,34.38
2022-11-04T17:44:30.736Z,49.45
2022-11-04T17:47:17.528Z,62.40
2022-11-04T17:50:11.720Z,50.70
2022-11-04T17:53:17.029Z,55.98
2022-11-04T17:56:30.953Z,39.23
2022-11-04T17:59:37.407Z,38.50
2022-11-04T18:02:44.473Z,36.80
2022-11-04T18:05:50.383Z,38.50
2022-11-04T18:08:56.501Z,35.58
2022-11-04T18:12:22.115Z,24.92
2022-11-04T18:15:28.989Z,20.20
2022-11-04T18:18:33.938Z,22.50
2022-11-04T18:21:40.453Z,26.62
2022-11-04T18:24:46.857Z,25.08
2022-11-04T18:27:52.841Z,24.50
2022-11-04T18:30:58.805Z,23.57
2022-11-04T18:34:05.270Z,28.65
2022-11-04T18:37:12.594Z,20.05
2022-11-04T18:40:18.201Z,18.40
2022-11-04T18:43:24.723Z,17.70
2022-11-04T18:46:31.700Z,27.95
2022-11-04T18:49:36.307Z,26.10
2022-11-04T18:52:41.632Z,19.60
2022-11-04T18:55:48.821Z,24.75
2022-11-04T18:58:49.048Z,23.05
2022-11-04T19:01:59.177Z,21.62
2022-11-04T19:05:06.209Z,21.87
2022-11-04T19:08:12.046Z,25.68
2022-11-04T19:11:19.901Z,23.57
2022-11-04T19:14:27.056Z,16.95
2022-11-04T19:17:32.013Z,17.73
2022-11-04T19:20:37.688Z,15.98
2022-11-04T19:23:44.980Z,18.10
2022-11-04T19:26:51.581Z,19.10
2022-11-04T19:29:57.333Z,17.25
2022-11-04T19:33:04.506Z,25.15
2022-11-04T19:36:09.770Z,26.17
2022-11-04T19:39:18.582Z,21.15
2022-11-04T19:42:43.813Z,23.75
2022-11-04T19:46:01.376Z,23.95
2022-11-04T19:49:04.913Z,21.17
2022-11-04T19:52:12.443Z,23.40
2022-11-04T19:55:17.881Z,27.13
2022-11-04T19:58:23.753Z,27.55
2022-11-04T20:01:30.278Z,24.37
2022-11-04T20:04:36.982Z,25.97
2022-11-04T20:07:45.699Z,25.35
2022-11-04T20:10:55.888Z,26.65
2022-11-04T20:14:07.789Z,22.45
2022-11-04T20:17:12.374Z,27.67
2022-11-04T20:20:18.629Z,30.80
2022-11-04T20:23:24.336Z,26.77
2022-11-04T20:26:26.695Z,34.13
2022-11-04T20:29:33.543Z,29.10
2022-11-04T20:32:39.211Z,29.80
2022-11-04T20:35:45.113Z,25.35
2022-11-04T20:38:52.300Z,32.03
2022-11-04T20:41:58.444Z,42.05
2022-11-04T20:45:04.385Z,53.13
2022-11-04T20:48:12.490Z,56.25
2022-11-04T20:51:27.230Z,51.65
2022-11-04T20:54:33.258Z,40.40
2022-11-04T20:57:39.214Z,36.48
2022-11-04T21:00:45.555Z,29.82
2022-11-04T21:03:52.142Z,36.42
2022-11-04T21:06:58.197Z,45.58
2022-11-04T21:10:03.344Z,42.78
2022-11-04T21:13:09.771Z,35.92
2022-11-04T21:16:16.478Z,41.18
2022-11-04T21:19:22.956Z,42.00
2022-11-04T21:22:29.550Z,42.95
2022-11-04T21:25:37.075Z,39.23
2022-11-04T21:28:43.396Z,39.27
2022-11-04T21:31:51.273Z,46.95
2022-11-04T21:34:57.288Z,41.58
2022-11-04T21:38:04.007Z,39.63
2022-11-04T21:41:22.603Z,33.15
2022-11-04T21:44:28.700Z,28.87
2022-11-04T21:47:34.406Z,28.12
2022-11-04T21:50:40.178Z,27.55
2022-11-04T21:53:45.668Z,31.55
2022-11-04T21:56:52.502Z,27.62
2022-11-04T21:59:57.853Z,31.65
2022-11-04T22:03:04.436Z,31.42
2022-11-04T22:06:13.700Z,25.72
2022-11-04T22:09:21.139Z,26.77
2022-11-04T22:12:28.186Z,27.27
2022-11-04T22:15:52.594Z,26.40
2022-11-04T22:19:01.139Z,23.20
2022-11-04T22:22:07.822Z,22.50
2022-11-04T22:25:15.000Z,27.15
2022-11-04T22:28:21.915Z,26.02
2022-11-04T22:31:32.064Z,25.15
2022-11-04T22:34:38.064Z,24.85
2022-11-04T22:37:44.342Z,23.18
2022-11-04T22:40:49.905Z,27.20
2022-11-04T22:43:56.133Z,27.52
2022-11-04T22:47:03.128Z,26.60
2022-11-04T22:50:04.226Z,25.68
2022-11-04T22:53:10.652Z,22.40
2022-11-04T22:56:18.391Z,24.45
2022-11-04T22:59:24.877Z,28.25
2022-11-04T23:02:33.961Z,25.60
2022-11-04T23:05:37.443Z,32.03
2022-11-04T23:08:43.896Z,23.92
2022-11-04T23:12:07.456Z,26.73
2022-11-04T23:15:33.157Z,24.65
2022-11-04T23:18:51.572Z,29.80
2022-11-04T23:22:15.102Z,26.95
2022-11-04T23:25:21.848Z,27.10
2022-11-04T23:28:46.241Z,30.43
2022-11-04T23:31:52.547Z,23.27
2022-11-04T23:35:16.316Z,27.17
2022-11-04T23:38:21.991Z,27.15
2022-11-04T23:41:45.485Z,25.57
2022-11-04T23:45:08.822Z,30.02
2022-11-04T23:48:32.465Z,30.60
2022-11-04T23:51:56.263Z,31.57
2022-11-04T23:55:19.586Z,23.35
2022-11-04T23:58:43.416Z,27.22
